Terminal Aerodrome Forecast
Issued by NWS

Home | Current Version | Previous Version | Text Only | Print | Product List | Glossary On
Versions: 1 2 3 4 5 6 7 8 9 10 11 12 13 14 15 16 17 18 19 20 21
000
FTUS43 KSGF 252100 AAA
TAFJLN
TAF AMD
KJLN 252139Z 2522/2618 05012G22KT P6SM VCTS OVC050CB
      TEMPO 2523/2601 2SM +TSRA OVC015CB
     FM260100 03013G22KT 4SM TSRA BR OVC015CB
     FM260400 36016G22KT 6SM -RADZ OVC008
     FM261000 36012KT P6SM OVC010
     FM261300 01010KT P6SM SCT015=

USA.gov is the U.S. government's official web portal to all federal, state and local government web resources and services.